sensor_id;sensor_type;location;lat;lon;timestamp;pressure;altitude;pressure_sealevel;temperature;humidity
24045;BME280;26257;49.442;8.422;2022-11-12T00:00:39;102163.09;;;12.64;100.00
24045;BME280;26257;49.442;8.422;2022-11-12T00:03:05;102164.78;;;12.62;100.00
24045;BME280;26257;49.442;8.422;2022-11-12T00:05:31;102156.25;;;12.72;100.00
24045;BME280;26257;49.442;8.422;2022-11-12T00:07:57;102164.69;;;12.59;100.00
24045;BME280;26257;49.442;8.422;2022-11-12T00:10:23;102154.38;;;12.68;100.00
24045;BME280;26257;49.442;8.422;2022-11-12T00:12:48;102163.75;;;11.99;100.00
24045;BME280;26257;49.442;8.422;2022-11-12T00:15:14;102171.91;;;12.63;100.00
24045;BME280;26257;49.442;8.422;2022-11-12T00:17:44;102173.09;;;12.43;100.00
24045;BME280;26257;49.442;8.422;2022-11-12T00:20:12;102169.81;;;12.83;100.00
24045;BME280;26257;49.442;8.422;2022-11-12T00:22:38;102171.09;;;12.66;100.00
24045;BME280;26257;49.442;8.422;2022-11-12T00:25:04;102166.63;;;12.96;100.00
24045;BME280;26257;49.442;8.422;2022-11-12T00:27:31;102163.47;;;13.08;100.00
24045;BME280;26257;49.442;8.422;2022-11-12T00:29:57;102151.50;;;13.23;100.00
24045;BME280;26257;49.442;8.422;2022-11-12T00:32:22;102158.81;;;13.00;100.00
24045;BME280;26257;49.442;8.422;2022-11-12T00:34:47;102168.56;;;12.70;100.00
24045;BME280;26257;49.442;8.422;2022-11-12T00:37:13;102170.59;;;13.10;100.00
24045;BME280;26257;49.442;8.422;2022-11-12T00:39:38;102159.25;;;13.16;100.00
24045;BME280;26257;49.442;8.422;2022-11-12T00:42:04;102158.66;;;13.26;100.00
24045;BME280;26257;49.442;8.422;2022-11-12T00:44:29;102168.41;;;12.64;100.00
24045;BME280;26257;49.442;8.422;2022-11-12T00:46:56;102174.19;;;13.12;100.00
24045;BME280;26257;49.442;8.422;2022-11-12T00:49:22;102170.28;;;12.99;100.00
24045;BME280;26257;49.442;8.422;2022-11-12T00:51:48;102173.06;;;12.73;100.00
24045;BME280;26257;49.442;8.422;2022-11-12T00:54:13;102170.56;;;12.77;100.00
24045;BME280;26257;49.442;8.422;2022-11-12T00:56:39;102161.22;;;13.23;100.00
24045;BME280;26257;49.442;8.422;2022-11-12T00:59:04;102160.59;;;13.01;100.00
24045;BME280;26257;49.442;8.422;2022-11-12T01:01:30;102165.47;;;12.55;100.00
24045;BME280;26257;49.442;8.422;2022-11-12T01:03:56;102158.94;;;12.44;100.00
24045;BME280;26257;49.442;8.422;2022-11-12T01:06:22;102159.94;;;12.77;100.00
24045;BME280;26257;49.442;8.422;2022-11-12T01:08:48;102156.25;;;12.72;100.00
24045;BME280;26257;49.442;8.422;2022-11-12T01:13:43;102148.88;;;13.25;100.00
24045;BME280;26257;49.442;8.422;2022-11-12T01:16:13;102156.50;;;13.11;100.00
24045;BME280;26257;49.442;8.422;2022-11-12T01:18:39;102165.47;;;13.16;100.00
24045;BME280;26257;49.442;8.422;2022-11-12T01:21:05;102166.13;;;13.08;100.00
24045;BME280;26257;49.442;8.422;2022-11-12T01:23:33;102171.47;;;13.09;100.00
24045;BME280;26257;49.442;8.422;2022-11-12T01:26:06;102172.94;;;12.99;100.00
24045;BME280;26257;49.442;8.422;2022-11-12T01:28:31;102168.56;;;12.70;100.00
24045;BME280;26257;49.442;8.422;2022-11-12T01:30:57;102161.47;;;13.00;100.00
24045;BME280;26257;49.442;8.422;2022-11-12T01:33:22;102169.06;;;12.57;100.00
24045;BME280;26257;49.442;8.422;2022-11-12T01:35:48;102153.88;;;13.13;100.00
24045;BME280;26257;49.442;8.422;2022-11-12T01:38:13;102153.69;;;12.75;100.00
24045;BME280;26257;49.442;8.422;2022-11-12T01:40:39;102155.06;;;12.92;100.00
24045;BME280;26257;49.442;8.422;2022-11-12T01:43:11;102143.66;;;12.96;100.00
24045;BME280;26257;49.442;8.422;2022-11-12T01:45:39;102143.56;;;12.62;100.00
24045;BME280;26257;49.442;8.422;2022-11-12T01:48:13;102145.97;;;12.53;100.00
24045;BME280;26257;49.442;8.422;2022-11-12T01:50:45;102140.84;;;12.59;100.00
24045;BME280;26257;49.442;8.422;2022-11-12T01:53:12;102138.88;;;12.83;100.00
24045;BME280;26257;49.442;8.422;2022-11-12T01:55:38;102139.91;;;12.57;100.00
24045;BME280;26257;49.442;8.422;2022-11-12T01:58:11;102155.03;;;12.31;100.00
24045;BME280;26257;49.442;8.422;2022-11-12T02:00:39;102152.09;;;12.51;100.00
24045;BME280;26257;49.442;8.422;2022-11-12T02:03:08;102150.94;;;12.72;100.00
24045;BME280;26257;49.442;8.422;2022-11-12T02:05:37;102147.53;;;12.76;100.00
24045;BME280;26257;49.442;8.422;2022-11-12T02:08:04;102143.75;;;12.68;100.00
24045;BME280;26257;49.442;8.422;2022-11-12T02:10:33;102155.19;;;12.36;100.00
24045;BME280;26257;49.442;8.422;2022-11-12T02:12:59;102151.69;;;12.37;100.00
24045;BME280;26257;49.442;8.422;2022-11-12T02:15:44;102154.63;;;12.18;100.00
24045;BME280;26257;49.442;8.422;2022-11-12T02:18:09;102155.16;;;12.06;100.00
24045;BME280;26257;49.442;8.422;2022-11-12T02:20:36;102150.66;;;12.32;100.00
24045;BME280;26257;49.442;8.422;2022-11-12T02:23:03;102146.78;;;12.51;100.00
24045;BME280;26257;49.442;8.422;2022-11-12T02:25:28;102139.75;;;12.51;100.00
24045;BME280;26257;49.442;8.422;2022-11-12T02:27:55;102135.03;;;12.72;100.00
24045;BME280;26257;49.442;8.422;2022-11-12T02:30:36;102141.28;;;11.87;100.00
24045;BME280;26257;49.442;8.422;2022-11-12T02:33:02;102139.19;;;12.05;100.00
24045;BME280;26257;49.442;8.422;2022-11-12T02:35:28;102129.34;;;12.29;100.00
24045;BME280;26257;49.442;8.422;2022-11-12T02:37:54;102124.38;;;12.39;100.00
24045;BME280;26257;49.442;8.422;2022-11-12T02:40:20;102129.72;;;12.11;100.00
24045;BME280;26257;49.442;8.422;2022-11-12T02:42:45;102129.06;;;11.92;100.00
24045;BME280;26257;49.442;8.422;2022-11-12T02:45:10;102127.16;;;12.14;100.00
24045;BME280;26257;49.442;8.422;2022-11-12T02:47:36;102119.28;;;12.78;100.00
24045;BME280;26257;49.442;8.422;2022-11-12T03:08:57;102151.16;;;11.65;100.00
24045;BME280;26257;49.442;8.422;2022-11-12T03:11:22;102147.44;;;12.14;100.00
24045;BME280;26257;49.442;8.422;2022-11-12T03:13:47;102138.13;;;12.56;100.00
24045;BME280;26257;49.442;8.422;2022-11-12T03:16:13;102124.59;;;12.78;100.00
24045;BME280;26257;49.442;8.422;2022-11-12T03:18:38;102119.28;;;12.78;100.00
24045;BME280;26257;49.442;8.422;2022-11-12T03:21:04;102118.06;;;12.98;100.00
24045;BME280;26257;49.442;8.422;2022-11-12T03:23:29;102121.44;;;12.60;100.00
24045;BME280;26257;49.442;8.422;2022-11-12T03:25:55;102132.69;;;11.94;100.00
24045;BME280;26257;49.442;8.422;2022-11-12T03:28:21;102137.75;;;12.44;100.00
24045;BME280;26257;49.442;8.422;2022-11-12T03:30:46;102133.97;;;12.06;100.00
24045;BME280;26257;49.442;8.422;2022-11-12T03:33:13;102126.50;;;12.51;100.00
24045;BME280;26257;49.442;8.422;2022-11-12T03:38:07;102122.28;;;12.59;100.00
24045;BME280;26257;49.442;8.422;2022-11-12T03:40:33;102133.03;;;12.04;100.00
24045;BME280;26257;49.442;8.422;2022-11-12T03:42:58;102120.72;;;12.36;100.00
24045;BME280;26257;49.442;8.422;2022-11-12T03:45:26;102116.63;;;12.47;100.00
24045;BME280;26257;49.442;8.422;2022-11-12T03:47:54;102121.00;;;12.45;100.00
24045;BME280;26257;49.442;8.422;2022-11-12T03:50:22;102112.97;;;12.42;100.00
24045;BME280;26257;49.442;8.422;2022-11-12T03:52:50;102117.91;;;12.30;100.00
24045;BME280;26257;49.442;8.422;2022-11-12T03:55:17;102125.28;;;12.40;100.00
24045;BME280;26257;49.442;8.422;2022-11-12T03:57:43;102115.94;;;12.54;100.00
24045;BME280;26257;49.442;8.422;2022-11-12T04:00:10;102109.63;;;12.49;100.00
24045;BME280;26257;49.442;8.422;2022-11-12T04:02:36;102106.22;;;12.53;100.00
24045;BME280;26257;49.442;8.422;2022-11-12T04:05:03;102121.47;;;12.02;100.00
24045;BME280;26257;49.442;8.422;2022-11-12T04:08:11;102111.16;;;12.41;100.00
24045;BME280;26257;49.442;8.422;2022-11-12T04:10:55;102109.56;;;12.18;100.00
24045;BME280;26257;49.442;8.422;2022-11-12T04:13:21;102111.81;;;11.76;100.00
24045;BME280;26257;49.442;8.422;2022-11-12T04:16:07;102112.34;;;11.93;100.00
24045;BME280;26257;49.442;8.422;2022-11-12T04:18:54;102106.41;;;12.29;100.00
24045;BME280;26257;49.442;8.422;2022-11-12T04:21:41;102109.31;;;11.54;100.00
24045;BME280;26257;49.442;8.422;2022-11-12T04:24:32;102110.06;;;11.76;100.00
24045;BME280;26257;49.442;8.422;2022-11-12T04:27:24;102113.59;;;11.50;100.00
24045;BME280;26257;49.442;8.422;2022-11-12T04:29:54;102113.94;;;12.16;100.00
24045;BME280;26257;49.442;8.422;2022-11-12T04:32:49;102102.09;;;12.33;100.00
24045;BME280;26257;49.442;8.422;2022-11-12T04:35:16;102111.50;;;11.94;100.00
24045;BME280;26257;49.442;8.422;2022-11-12T04:37:43;102114.56;;;12.07;100.00
24045;BME280;26257;49.442;8.422;2022-11-12T04:42:57;102113.59;;;12.04;100.00
24045;BME280;26257;49.442;8.422;2022-11-12T04:45:42;102107.84;;;11.90;100.00
24045;BME280;26257;49.442;8.422;2022-11-12T04:48:09;102104.59;;;12.28;100.00
24045;BME280;26257;49.442;8.422;2022-11-12T04:50:35;102109.16;;;12.64;100.00
24045;BME280;26257;49.442;8.422;2022-11-12T04:53:01;102120.19;;;12.18;100.00
24045;BME280;26257;49.442;8.422;2022-11-12T04:55:26;102110.75;;;12.57;100.00
24045;BME280;26257;49.442;8.422;2022-11-12T04:57:51;102106.94;;;12.18;100.00
24045;BME280;26257;49.442;8.422;2022-11-12T05:00:17;102115.25;;;11.73;100.00
24045;BME280;26257;49.442;8.422;2022-11-12T05:02:42;102119.09;;;11.56;100.00
24045;BME280;26257;49.442;8.422;2022-11-12T05:05:08;102124.19;;;12.04;100.00
24045;BME280;26257;49.442;8.422;2022-11-12T05:07:33;102127.81;;;11.79;100.00
24045;BME280;26257;49.442;8.422;2022-11-12T05:09:59;102121.69;;;12.10;100.00
24045;BME280;26257;49.442;8.422;2022-11-12T05:12:24;102125.56;;;11.66;100.00
24045;BME280;26257;49.442;8.422;2022-11-12T05:14:50;102122.66;;;11.57;100.00
24045;BME280;26257;49.442;8.422;2022-11-12T05:17:15;102120.91;;;11.57;100.00
24045;BME280;26257;49.442;8.422;2022-11-12T05:19:41;102115.81;;;11.90;100.00
24045;BME280;26257;49.442;8.422;2022-11-12T05:22:08;102124.88;;;11.98;100.00
24045;BME280;26257;49.442;8.422;2022-11-12T05:24:39;102122.00;;;11.91;100.00
24045;BME280;26257;49.442;8.422;2022-11-12T05:27:14;102129.56;;;11.53;100.00
24045;BME280;26257;49.442;8.422;2022-11-12T05:29:40;102127.72;;;11.51;100.00
24045;BME280;26257;49.442;8.422;2022-11-12T05:32:07;102141.13;;;12.09;100.00
24045;BME280;26257;49.442;8.422;2022-11-12T05:34:33;102133.31;;;11.85;100.00
24045;BME280;26257;49.442;8.422;2022-11-12T05:37:00;102136.63;;;11.78;100.00
24045;BME280;26257;49.442;8.422;2022-11-12T05:39:26;102134.88;;;12.07;100.00
24045;BME280;26257;49.442;8.422;2022-11-12T05:41:51;102139.38;;;12.09;100.00
24045;BME280;26257;49.442;8.422;2022-11-12T05:44:17;102134.06;;;12.09;100.00
24045;BME280;26257;49.442;8.422;2022-11-12T05:46:43;102133.16;;;11.81;100.00
24045;BME280;26257;49.442;8.422;2022-11-12T05:49:09;102134.63;;;12.27;100.00
24045;BME280;26257;49.442;8.422;2022-11-12T05:51:34;102146.91;;;11.69;100.00
24045;BME280;26257;49.442;8.422;2022-11-12T05:54:00;102148.38;;;11.88;100.00
24045;BME280;26257;49.442;8.422;2022-11-12T05:56:26;102141.78;;;12.02;100.00
24045;BME280;26257;49.442;8.422;2022-11-12T05:58:51;102143.03;;;11.34;100.00
24045;BME280;26257;49.442;8.422;2022-11-12T06:01:17;102148.53;;;11.40;100.00
24045;BME280;26257;49.442;8.422;2022-11-12T06:03:42;102148.75;;;11.46;100.00
24045;BME280;26257;49.442;8.422;2022-11-12T06:06:08;102155.44;;;11.87;100.00
24045;BME280;26257;49.442;8.422;2022-11-12T06:08:33;102146.13;;;11.21;100.00
24045;BME280;26257;49.442;8.422;2022-11-12T06:10:58;102154.53;;;11.35;100.00
24045;BME280;26257;49.442;8.422;2022-11-12T06:13:24;102148.25;;;11.31;100.00
24045;BME280;26257;49.442;8.422;2022-11-12T06:15:54;102153.88;;;11.94;100.00
24045;BME280;26257;49.442;8.422;2022-11-12T06:18:20;102159.84;;;11.61;100.00
24045;BME280;26257;49.442;8.422;2022-11-12T06:20:45;102151.00;;;11.86;100.00
24045;BME280;26257;49.442;8.422;2022-11-12T06:23:31;102152.69;;;11.84;100.00
24045;BME280;26257;49.442;8.422;2022-11-12T06:25:57;102149.41;;;11.66;100.00
24045;BME280;26257;49.442;8.422;2022-11-12T06:28:22;102163.84;;;11.49;100.00
24045;BME280;26257;49.442;8.422;2022-11-12T06:30:48;102154.34;;;11.81;100.00
24045;BME280;26257;49.442;8.422;2022-11-12T06:33:13;102149.31;;;12.18;100.00
24045;BME280;26257;49.442;8.422;2022-11-12T06:35:38;102158.28;;;11.93;100.00
24045;BME280;26257;49.442;8.422;2022-11-12T06:38:04;102149.25;;;11.61;100.00
24045;BME280;26257;49.442;8.422;2022-11-12T06:40:29;102159.56;;;12.06;100.00
24045;BME280;26257;49.442;8.422;2022-11-12T06:42:56;102166.50;;;12.60;100.00
24045;BME280;26257;49.442;8.422;2022-11-12T06:45:21;102159.38;;;12.59;100.00
24045;BME280;26257;49.442;8.422;2022-11-12T06:47:47;102147.84;;;12.88;100.00
24045;BME280;26257;49.442;8.422;2022-11-12T06:50:12;102157.63;;;12.89;100.00
24045;BME280;26257;49.442;8.422;2022-11-12T06:52:37;102159.44;;;12.31;100.00
24045;BME280;26257;49.442;8.422;2022-11-12T06:55:03;102155.88;;;12.01;100.00
24045;BME280;26257;49.442;8.422;2022-11-12T06:57:29;102159.09;;;11.91;100.00
24045;BME280;26257;49.442;8.422;2022-11-12T06:59:55;102153.38;;;11.78;100.00
24045;BME280;26257;49.442;8.422;2022-11-12T07:02:21;102168.34;;;12.33;100.00
24045;BME280;26257;49.442;8.422;2022-11-12T07:04:46;102160.72;;;12.75;100.00
24045;BME280;26257;49.442;8.422;2022-11-12T07:07:11;102157.28;;;12.46;100.00
24045;BME280;26257;49.442;8.422;2022-11-12T07:09:37;102158.50;;;12.29;100.00
24045;BME280;26257;49.442;8.422;2022-11-12T07:12:02;102163.44;;;12.17;100.00
24045;BME280;26257;49.442;8.422;2022-11-12T07:14:28;102161.03;;;11.69;100.00
24045;BME280;26257;49.442;8.422;2022-11-12T07:16:53;102158.16;;;11.63;100.00
24045;BME280;26257;49.442;8.422;2022-11-12T07:19:19;102154.97;;;11.73;100.00
24045;BME280;26257;49.442;8.422;2022-11-12T07:21:44;102148.47;;;11.64;100.00
24045;BME280;26257;49.442;8.422;2022-11-12T07:24:09;102150.75;;;11.53;100.00
24045;BME280;26257;49.442;8.422;2022-11-12T07:26:35;102149.31;;;12.18;100.00
24045;BME280;26257;49.442;8.422;2022-11-12T07:29:00;102149.47;;;11.67;100.00
24045;BME280;26257;49.442;8.422;2022-11-12T07:31:26;102147.56;;;11.63;100.00
24045;BME280;26257;49.442;8.422;2022-11-12T07:33:52;102152.78;;;11.87;100.00
24045;BME280;26257;49.442;8.422;2022-11-12T07:36:19;102144.78;;;11.86;100.00
24045;BME280;26257;49.442;8.422;2022-11-12T07:38:49;102147.84;;;11.99;100.00
24045;BME280;26257;49.442;8.422;2022-11-12T07:41:17;102142.75;;;11.77;100.00
24045;BME280;26257;49.442;8.422;2022-11-12T07:43:57;102149.78;;;11.76;100.00
24045;BME280;26257;49.442;8.422;2022-11-12T07:46:27;102148.19;;;12.38;100.00
24045;BME280;26257;49.442;8.422;2022-11-12T07:48:57;102149.88;;;12.36;100.00
24045;BME280;26257;49.442;8.422;2022-11-12T07:51:25;102140.03;;;12.30;100.00
24045;BME280;26257;49.442;8.422;2022-11-12T07:53:53;102138.66;;;12.15;100.00
24045;BME280;26257;49.442;8.422;2022-11-12T07:56:23;102140.34;;;11.85;100.00
24045;BME280;26257;49.442;8.422;2022-11-12T07:58:50;102138.47;;;12.38;100.00
24045;BME280;26257;49.442;8.422;2022-11-12T08:03:49;102143.94;;;12.74;100.00
24045;BME280;26257;49.442;8.422;2022-11-12T08:06:15;102134.78;;;12.33;100.00
24045;BME280;26257;49.442;8.422;2022-11-12T08:08:40;102137.47;;;12.05;100.00
24045;BME280;26257;49.442;8.422;2022-11-12T08:11:05;102146.19;;;11.74;100.00
24045;BME280;26257;49.442;8.422;2022-11-12T08:13:32;102153.69;;;11.88;100.00
24045;BME280;26257;49.442;8.422;2022-11-12T08:16:09;102153.31;;;12.32;100.00
24045;BME280;26257;49.442;8.422;2022-11-12T08:18:43;102156.66;;;12.26;100.00
24045;BME280;26257;49.442;8.422;2022-11-12T08:21:16;102151.50;;;12.31;100.00
24045;BME280;26257;49.442;8.422;2022-11-12T08:23:44;102156.00;;;12.63;100.00
24045;BME280;26257;49.442;8.422;2022-11-12T08:26:22;102149.53;;;12.24;100.00
24045;BME280;26257;49.442;8.422;2022-11-12T08:28:47;102166.44;;;12.29;100.00
24045;BME280;26257;49.442;8.422;2022-11-12T08:31:17;102146.59;;;12.74;100.00
24045;BME280;26257;49.442;8.422;2022-11-12T08:33:43;102144.28;;;12.57;100.00
24045;BME280;26257;49.442;8.422;2022-11-12T08:36:23;102160.34;;;12.03;100.00
24045;BME280;26257;49.442;8.422;2022-11-12T08:38:57;102153.94;;;12.84;100.00
24045;BME280;26257;49.442;8.422;2022-11-12T08:41:28;102145.56;;;12.69;100.00
24045;BME280;26257;49.442;8.422;2022-11-12T08:43:59;102147.19;;;13.27;100.00
24045;BME280;26257;49.442;8.422;2022-11-12T08:46:30;102152.19;;;12.85;100.00
24045;BME280;26257;49.442;8.422;2022-11-12T08:49:15;102154.06;;;12.89;100.00
24045;BME280;26257;49.442;8.422;2022-11-12T09:19:35;102153.56;;;12.71;100.00
24045;BME280;26257;49.442;8.422;2022-11-12T09:22:01;102162.13;;;12.92;100.00
24045;BME280;26257;49.442;8.422;2022-11-12T09:24:26;102165.63;;;12.30;100.00
24045;BME280;26257;49.442;8.422;2022-11-12T09:26:52;102171.06;;;12.36;100.00
24045;BME280;26257;49.442;8.422;2022-11-12T09:29:18;102166.84;;;12.13;100.00
24045;BME280;26257;49.442;8.422;2022-11-12T09:31:43;102171.00;;;12.33;100.00
24045;BME280;26257;49.442;8.422;2022-11-12T09:34:09;102174.13;;;12.20;100.00
24045;BME280;26257;49.442;8.422;2022-11-12T09:36:39;102169.44;;;12.39;100.00
24045;BME280;26257;49.442;8.422;2022-11-12T09:39:04;102169.88;;;12.55;100.00
24045;BME280;26257;49.442;8.422;2022-11-12T09:41:38;102172.03;;;12.10;100.00
24045;BME280;26257;49.442;8.422;2022-11-12T09:44:09;102165.88;;;11.83;100.00
24045;BME280;26257;49.442;8.422;2022-11-12T09:46:49;102181.41;;;11.99;100.00
24045;BME280;26257;49.442;8.422;2022-11-12T09:49:20;102174.47;;;12.60;100.00
24045;BME280;26257;49.442;8.422;2022-11-12T09:51:50;102174.94;;;12.47;100.00
24045;BME280;26257;49.442;8.422;2022-11-12T09:54:30;102173.38;;;12.24;100.00
24045;BME280;26257;49.442;8.422;2022-11-12T09:56:57;102174.31;;;11.98;100.00
24045;BME280;26257;49.442;8.422;2022-11-12T09:59:26;102167.16;;;12.23;100.00
24045;BME280;26257;49.442;8.422;2022-11-12T10:02:05;102158.13;;;12.45;100.00
24045;BME280;26257;49.442;8.422;2022-11-12T10:07:30;102151.75;;;12.10;100.00
24045;BME280;26257;49.442;8.422;2022-11-12T10:10:13;102153.44;;;12.36;100.00
24045;BME280;26257;49.442;8.422;2022-11-12T10:13:10;102149.63;;;11.99;100.00
24045;BME280;26257;49.442;8.422;2022-11-12T10:15:49;102149.06;;;12.38;100.00
24045;BME280;26257;49.442;8.422;2022-11-12T10:18:42;102147.00;;;12.28;100.00
24045;BME280;26257;49.442;8.422;2022-11-12T10:23:55;102141.28;;;12.74;100.00
24045;BME280;26257;49.442;8.422;2022-11-12T10:26:24;102131.84;;;12.85;100.00
24045;BME280;26257;49.442;8.422;2022-11-12T10:29:13;102127.44;;;12.53;100.00
24045;BME280;26257;49.442;8.422;2022-11-12T10:31:43;102148.34;;;12.44;100.00
24045;BME280;26257;49.442;8.422;2022-11-12T10:34:19;102140.94;;;12.62;100.00
24045;BME280;26257;49.442;8.422;2022-11-12T10:37:04;102144.69;;;12.70;100.00
24045;BME280;26257;49.442;8.422;2022-11-12T10:42:10;102145.00;;;12.20;100.00
24045;BME280;26257;49.442;8.422;2022-11-12T10:44:37;102135.78;;;12.67;100.00
24045;BME280;26257;49.442;8.422;2022-11-12T10:47:24;102140.84;;;12.59;100.00
24045;BME280;26257;49.442;8.422;2022-11-12T10:52:35;102131.28;;;12.64;100.00
24045;BME280;26257;49.442;8.422;2022-11-12T10:57:30;102127.81;;;12.98;100.00
24045;BME280;26257;49.442;8.422;2022-11-12T11:00:19;102125.97;;;12.33;100.00
24045;BME280;26257;49.442;8.422;2022-11-12T11:02:52;102129.19;;;12.85;100.00
24045;BME280;26257;49.442;8.422;2022-11-12T11:08:40;102122.63;;;13.04;100.00
24045;BME280;26257;49.442;8.422;2022-11-12T11:13:41;102123.03;;;12.54;100.00
24045;BME280;26257;49.442;8.422;2022-11-12T11:16:12;102127.53;;;12.28;100.00
24045;BME280;26257;49.442;8.422;2022-11-12T11:18:40;102120.28;;;11.93;100.00
24045;BME280;26257;49.442;8.422;2022-11-12T11:26:33;102115.28;;;12.02;100.00
24045;BME280;26257;49.442;8.422;2022-11-12T11:29:43;102120.91;;;11.84;100.00
24045;BME280;26257;49.442;8.422;2022-11-12T11:32:34;102116.38;;;12.38;100.00
24045;BME280;26257;49.442;8.422;2022-11-12T11:35:16;102118.03;;;12.34;100.00
24045;BME280;26257;49.442;8.422;2022-11-12T11:43:34;102113.91;;;12.75;100.00
24045;BME280;26257;49.442;8.422;2022-11-12T11:51:35;102099.47;;;12.64;100.00
24045;BME280;26257;49.442;8.422;2022-11-12T11:56:43;102111.25;;;12.44;100.00
24045;BME280;26257;49.442;8.422;2022-11-12T11:59:27;102095.19;;;12.38;100.00
24045;BME280;26257;49.442;8.422;2022-11-12T12:08:15;102083.91;;;12.47;100.00
24045;BME280;26257;49.442;8.422;2022-11-12T12:19:13;102065.63;;;13.57;99.96
24045;BME280;26257;49.442;8.422;2022-11-12T12:21:43;102066.34;;;13.50;100.00
24045;BME280;26257;49.442;8.422;2022-11-12T12:24:42;102062.25;;;12.94;100.00
24045;BME280;26257;49.442;8.422;2022-11-12T12:27:11;102067.72;;;13.00;100.00
24045;BME280;26257;49.442;8.422;2022-11-12T12:29:51;102070.50;;;12.09;100.00
24045;BME280;26257;49.442;8.422;2022-11-12T12:32:22;102057.53;;;12.82;100.00
24045;BME280;26257;49.442;8.422;2022-11-12T12:34:57;102053.66;;;13.04;100.00
24045;BME280;26257;49.442;8.422;2022-11-12T12:37:39;102052.63;;;12.97;100.00
24045;BME280;26257;49.442;8.422;2022-11-12T12:41:02;102062.13;;;12.89;100.00
24045;BME280;26257;49.442;8.422;2022-11-12T12:45:45;102056.97;;;12.61;100.00
24045;BME280;26257;49.442;8.422;2022-11-12T12:48:39;102047.16;;;12.91;100.00
24045;BME280;26257;49.442;8.422;2022-11-12T12:51:02;102041.75;;;12.88;100.00
24045;BME280;26257;49.442;8.422;2022-11-12T12:55:56;102036.94;;;13.07;100.00
24045;BME280;26257;49.442;8.422;2022-11-12T12:58:32;102031.97;;;13.19;100.00
24045;BME280;26257;49.442;8.422;2022-11-12T13:03:58;102033.75;;;13.20;100.00
24045;BME280;26257;49.442;8.422;2022-11-12T13:06:54;102032.03;;;13.22;100.00
24045;BME280;26257;49.442;8.422;2022-11-12T13:09:50;102020.47;;;13.57;100.00
24045;BME280;26257;49.442;8.422;2022-11-12T13:13:07;102016.97;;;13.58;100.00
24045;BME280;26257;49.442;8.422;2022-11-12T13:16:02;102014.16;;;13.15;100.00
24045;BME280;26257;49.442;8.422;2022-11-12T13:19:26;102013.94;;;13.43;100.00
24045;BME280;26257;49.442;8.422;2022-11-12T13:33:28;102004.69;;;13.63;97.40
24045;BME280;26257;49.442;8.422;2022-11-12T13:36:37;102008.25;;;13.26;100.00
24045;BME280;26257;49.442;8.422;2022-11-12T13:39:17;102002.13;;;13.29;100.00
24045;BME280;26257;49.442;8.422;2022-11-12T13:41:55;102008.59;;;13.06;100.00
24045;BME280;26257;49.442;8.422;2022-11-12T13:44:39;102010.41;;;13.07;100.00
24045;BME280;26257;49.442;8.422;2022-11-12T13:47:05;102010.84;;;12.89;100.00
24045;BME280;26257;49.442;8.422;2022-11-12T13:49:30;102002.22;;;12.97;100.00
24045;BME280;26257;49.442;8.422;2022-11-12T13:51:56;102003.25;;;12.70;100.00
24045;BME280;26257;49.442;8.422;2022-11-12T13:54:36;102006.94;;;12.42;100.00
24045;BME280;26257;49.442;8.422;2022-11-12T13:59:46;101996.09;;;13.01;100.00
24045;BME280;26257;49.442;8.422;2022-11-12T14:02:21;101989.34;;;13.13;100.00
24045;BME280;26257;49.442;8.422;2022-11-12T14:04:47;101986.28;;;13.32;100.00
24045;BME280;26257;49.442;8.422;2022-11-12T14:07:34;101986.47;;;13.41;100.00
24045;BME280;26257;49.442;8.422;2022-11-12T14:10:14;101993.84;;;13.52;100.00
24045;BME280;26257;49.442;8.422;2022-11-12T14:21:16;101988.09;;;12.64;100.00
24045;BME280;26257;49.442;8.422;2022-11-12T14:23:47;101986.94;;;13.22;100.00
24045;BME280;26257;49.442;8.422;2022-11-12T14:26:35;101983.63;;;12.62;100.00
24045;BME280;26257;49.442;8.422;2022-11-12T14:29:01;101979.91;;;12.89;100.00
24045;BME280;26257;49.442;8.422;2022-11-12T14:31:26;101973.34;;;13.10;100.00
24045;BME280;26257;49.442;8.422;2022-11-12T14:33:52;101976.53;;;12.96;100.00
24045;BME280;26257;49.442;8.422;2022-11-12T14:36:17;101970.03;;;12.84;100.00
24045;BME280;26257;49.442;8.422;2022-11-12T14:38:48;101962.50;;;13.00;100.00
24045;BME280;26257;49.442;8.422;2022-11-12T14:43:45;101957.69;;;13.20;100.00
24045;BME280;26257;49.442;8.422;2022-11-12T14:46:26;101954.66;;;12.69;100.00
24045;BME280;26257;49.442;8.422;2022-11-12T14:48:59;101960.63;;;12.96;100.00
24045;BME280;26257;49.442;8.422;2022-11-12T14:51:28;101956.28;;;12.64;100.00
24045;BME280;26257;49.442;8.422;2022-11-12T14:54:01;101954.38;;;12.94;100.00
24045;BME280;26257;49.442;8.422;2022-11-12T14:56:32;101954.88;;;12.13;100.00
24045;BME280;26257;49.442;8.422;2022-11-12T14:58:59;101964.25;;;12.31;100.00
24045;BME280;26257;49.442;8.422;2022-11-12T15:01:31;101946.75;;;12.38;100.00
24045;BME280;26257;49.442;8.422;2022-11-12T15:06:36;101953.28;;;12.85;100.00
24045;BME280;26257;49.442;8.422;2022-11-12T15:09:02;101946.69;;;12.35;100.00
24045;BME280;26257;49.442;8.422;2022-11-12T15:11:42;101948.63;;;12.42;100.00
24045;BME280;26257;49.442;8.422;2022-11-12T15:14:12;101952.19;;;12.44;100.00
24045;BME280;26257;49.442;8.422;2022-11-12T15:16:44;101957.84;;;12.23;100.00
24045;BME280;26257;49.442;8.422;2022-11-12T15:21:44;101949.47;;;12.41;100.00
24045;BME280;26257;49.442;8.422;2022-11-12T15:26:41;101956.66;;;12.79;100.00
24045;BME280;26257;49.442;8.422;2022-11-12T15:31:51;101950.09;;;12.64;100.00